Pont Aven — FNPN — position and weather

sailwx.info

Track history (hours):
 
Tides and Currents Weather Stations Pressure Air Temp Water Temp Dewpoint Dewpoint Depression Visibility Wind Speed Wind Dir Waves Ship Positions

Pont Aven

Last reported at 2017-Mar-24 16:32 UTC. Time now 2017-Mar-24 17:56 UTC.
Position N 49°42' W 003°17'.

Length 185 m; beam 31 m.

Type: Passenger vessel. MMSI: 228183600.

Date/timePositionNaut miles runAvg speedWind from/ knotsBaromVisibWave heightAir tempDewpointWater temp
2017-Mar-24 16:32N 49°42' W 003°17'2222.1
2017-Mar-24 15:33N 49°57' W 002°52'7523.2
2017-Mar-24 12:20N 50°34' W 001°11'1215.7
2017-Mar-24 11:34N 50°46' W 001°05'3 2.6
2017-Mar-24 10:33N 50°49' W 001°06'0 0.0
2017-Mar-24 09:33N 50°49' W 001°06'0 0.0
2017-Mar-24 08:33N 50°49' W 001°06'0 0.0
2017-Mar-24 07:34N 50°49' W 001°06'0 0.0
2017-Mar-24 06:33N 50°49' W 001°06'0 0.0
2017-Mar-24 05:34N 50°49' W 001°06'0 0.0
2017-Mar-24 04:33N 50°49' W 001°06'0 0.0
2017-Mar-24 03:34N 50°49' W 001°06'0 0.0
2017-Mar-24 02:33N 50°49' W 001°06'0 0.0
2017-Mar-24 01:34N 50°49' W 001°06'0 0.0
2017-Mar-24 00:34N 50°49' W 001°06'0 0.0
2017-Mar-23 23:34N 50°49' W 001°06'0 0.0
2017-Mar-23 22:34N 50°49' W 001°06'0 0.0
2017-Mar-23 21:33N 50°49' W 001°06'0 0.0
2017-Mar-23 20:34N 50°49' W 001°06'0 0.0
2017-Mar-23 19:33N 50°49' W 001°06'0 0.0
2017-Mar-23 18:34N 50°49' W 001°06'0 0.0
2017-Mar-23 17:34N 50°49' W 001°06'4 3.9
2017-Mar-23 16:34N 50°45' W 001°05'1615.4
2017-Mar-23 15:30N 50°32' W 001°20'2222.9
2017-Mar-23 14:32N 50°16' W 001°45'6521.9
2017-Mar-23 11:33N 49°40' W 003°10'7222.3
2017-Mar-23 08:20N 48°49' W 004°27'1722.1
2017-Mar-23 07:34N 48°38' W 004°47'1919.0
2017-Mar-23 06:34N 48°24' W 005°06'2222.1
2017-Mar-23 05:34N 48°02' W 005°10'2322.4
2017-Mar-23 04:33N 47°40' W 005°01'6 0.2
2017-Mar-22 00:23N 47°44' W 005°08'1822.1
2017-Mar-21 23:33N 48°02' W 005°13'2121.4
2017-Mar-21 22:33N 48°22' W 005°06'1818.1
2017-Mar-21 21:34N 48°36' W 004°48'2120.6
2017-Mar-21 20:33N 48°52' W 004°28'6521.5
2017-Mar-21 17:33N 49°40' W 003°23'2222.1
2017-Mar-21 16:33N 49°55' W 002°58'7021.3
2017-Mar-21 13:15N 50°28' W 001°21'1419.7
2017-Mar-21 12:33N 50°37' W 001°04'1212.0
2017-Mar-21 11:34N 50°48' W 001°07'1 0.7
2017-Mar-21 10:33N 50°49' W 001°06'0 0.0
2017-Mar-21 09:33N 50°49' W 001°06'0 0.0
2017-Mar-21 08:33N 50°49' W 001°06'0 0.1
2017-Mar-21 07:34N 50°49' W 001°06'9 9.3
2017-Mar-21 06:34N 50°39' W 001°05'2 2.3
2017-Mar-21 05:34N 50°37' W 001°06'3812.7
2017-Mar-21 02:34N 50°07' W 001°42'1414.1
2017-Mar-21 01:34N 49°53' W 001°48'73 3.8
2017-Mar-20 06:33N 48°41' W 002°06'1616.1
2017-Mar-20 05:33N 48°54' W 002°20'6015.0
2017-Mar-20 01:34N 49°51' W 001°51'1514.7
2017-Mar-20 00:33N 50°03' W 001°37'1414.2
2017-Mar-19 23:33N 50°14' W 001°25'2114.1
2017-Mar-19 22:05N 50°31' W 001°05'814.4
2017-Mar-19 21:33N 50°38' W 001°00'1111.2
2017-Mar-19 20:33N 50°48' W 001°07'1 0.8
2017-Mar-19 19:33N 50°49' W 001°06'0 0.0
2017-Mar-19 18:33N 50°49' W 001°06'0 0.0
2017-Mar-19 17:33N 50°49' W 001°06'1 0.6
2017-Mar-19 16:34N 50°48' W 001°07'1211.7
2017-Mar-19 15:34N 50°37' W 001°06'2720.5
2017-Mar-19 14:16N 50°19' W 001°37'1521.4
2017-Mar-19 13:33N 50°10' W 001°56'2322.4
2017-Mar-19 12:32N 49°56' W 002°25'4522.9
2017-Mar-19 10:33N 49°29' W 003°21'3022.5
2017-Mar-19 09:15N 49°10' W 003°55'3822.7
2017-Mar-19 07:34N 48°43' W 004°37'2222.2
2017-Mar-19 06:33N 48°27' W 005°01'2020.4
2017-Mar-19 05:34N 48°08' W 005°10'2323.0
2017-Mar-19 04:34N 47°45' W 005°03'2322.5
2017-Mar-19 03:33N 47°23' W 004°56'2222.2
2017-Mar-19 02:33N 47°01' W 004°49'2222.1
2017-Mar-19 01:33N 46°40' W 004°42'70 2.7
2017-Mar-17 23:17N 47°48' W 005°05'2023.6
2017-Mar-17 22:27N 48°07' W 005°09'2022.3
2017-Mar-17 21:34N 48°27' W 005°02'2120.5
2017-Mar-17 20:33N 48°42' W 004°41'9621.7
2017-Mar-17 16:08N 49°53' W 003°02'1623.7
2017-Mar-17 15:27N 50°02' W 002°41'6622.4
2017-Mar-17 12:31N 50°34' W 001°11'1313.3
2017-Mar-17 11:33N 50°46' W 001°05'3 2.9
2017-Mar-17 10:33N 50°49' W 001°06'0 0.0
2017-Mar-17 09:34N 50°49' W 001°06'0 0.0
2017-Mar-17 08:33N 50°49' W 001°06'0 0.0
2017-Mar-17 07:33N 50°49' W 001°06'0 0.0
2017-Mar-17 06:33N 50°49' W 001°06'0 0.0
2017-Mar-17 05:33N 50°49' W 001°06'0 0.0
2017-Mar-17 04:33N 50°49' W 001°06'0 0.0
2017-Mar-17 03:33N 50°49' W 001°06'0 0.0
2017-Mar-17 02:33N 50°49' W 001°06'0 0.0
2017-Mar-17 01:33N 50°49' W 001°06'0 0.0
2017-Mar-17 00:33N 50°49' W 001°06'0 0.0
2017-Mar-16 23:33N 50°49' W 001°06'0 0.0
2017-Mar-16 22:34N 50°49' W 001°06'0 0.0
2017-Mar-16 21:33N 50°49' W 001°06'0 0.0
2017-Mar-16 20:33N 50°49' W 001°06'0 0.0
2017-Mar-16 19:33N 50°49' W 001°06'0 0.0
2017-Mar-16 18:33N 50°49' W 001°06'0 0.0
2017-Mar-16 17:34N 50°49' W 001°06'1 0.9
2017-Mar-16 16:33N 50°48' W 001°07'1111.2
2017-Mar-16 15:34N 50°37' W 001°02'1817.9
2017-Mar-16 14:34N 50°26' W 001°24'1919.1
2017-Mar-16 13:33N 50°14' W 001°48'2020.0
2017-Mar-16 12:33N 50°02' W 002°12'5522.8
2017-Mar-16 10:10N 49°30' W 003°21'1423.6
2017-Mar-16 09:33N 49°21' W 003°37'2322.5
2017-Mar-16 08:33N 49°05' W 004°02'2323.1
2017-Mar-16 07:32N 48°49' W 004°28'2424.1
2017-Mar-16 06:34N 48°33' W 004°54'1919.2
2017-Mar-16 05:34N 48°16' W 005°08'2523.5
2017-Mar-16 04:29N 47°51' W 005°06'3323.3
2017-Mar-16 03:05N 47°19' W 004°57'1923.4
2017-Mar-16 02:17N 47°00' W 004°52'1723.4
2017-Mar-16 01:34N 46°44' W 004°47'24 1.0
2017-Mar-15 00:31N 47°07' W 004°51'2222.6
2017-Mar-14 23:32N 47°28' W 005°01'2723.0
2017-Mar-14 22:23N 47°55' W 005°08'2024.2
2017-Mar-14 21:34N 48°14' W 005°07'2120.6
2017-Mar-14 20:33N 48°33' W 004°53'2322.9
2017-Mar-14 19:34N 48°50' W 004°30'2121.2
2017-Mar-14 18:33N 49°05' W 004°07'  
Track history (hours):
 
Tides and Currents Weather Stations Pressure Air Temp Water Temp Dewpoint Dewpoint Depression Visibility Wind Speed Wind Dir Waves Ship Positions

Pont Aven

Last reported at 2017-Mar-24 16:32 UTC. Time now 2017-Mar-24 17:56 UTC.
Position N 49°42' W 003°17'.

Length 185 m; beam 31 m.

Type: Passenger vessel. MMSI: 228183600.

Date/timePositionNaut miles runAvg speedWind from/ knotsBaromVisibWave heightAir tempDewpointWater temp
2017-Mar-24 16:32N 49°42' W 003°17'2222.1
2017-Mar-24 15:33N 49°57' W 002°52'7523.2
2017-Mar-24 12:20N 50°34' W 001°11'1215.7
2017-Mar-24 11:34N 50°46' W 001°05'3 2.6
2017-Mar-24 10:33N 50°49' W 001°06'0 0.0
2017-Mar-24 09:33N 50°49' W 001°06'0 0.0
2017-Mar-24 08:33N 50°49' W 001°06'0 0.0
2017-Mar-24 07:34N 50°49' W 001°06'0 0.0
2017-Mar-24 06:33N 50°49' W 001°06'0 0.0
2017-Mar-24 05:34N 50°49' W 001°06'0 0.0
2017-Mar-24 04:33N 50°49' W 001°06'0 0.0
2017-Mar-24 03:34N 50°49' W 001°06'0 0.0
2017-Mar-24 02:33N 50°49' W 001°06'0 0.0
2017-Mar-24 01:34N 50°49' W 001°06'0 0.0
2017-Mar-24 00:34N 50°49' W 001°06'0 0.0
2017-Mar-23 23:34N 50°49' W 001°06'0 0.0
2017-Mar-23 22:34N 50°49' W 001°06'0 0.0
2017-Mar-23 21:33N 50°49' W 001°06'0 0.0
2017-Mar-23 20:34N 50°49' W 001°06'0 0.0
2017-Mar-23 19:33N 50°49' W 001°06'0 0.0
2017-Mar-23 18:34N 50°49' W 001°06'0 0.0
2017-Mar-23 17:34N 50°49' W 001°06'4 3.9
2017-Mar-23 16:34N 50°45' W 001°05'1615.4
2017-Mar-23 15:30N 50°32' W 001°20'2222.9
2017-Mar-23 14:32N 50°16' W 001°45'6521.9
2017-Mar-23 11:33N 49°40' W 003°10'7222.3
2017-Mar-23 08:20N 48°49' W 004°27'1722.1
2017-Mar-23 07:34N 48°38' W 004°47'1919.0
2017-Mar-23 06:34N 48°24' W 005°06'2222.1
2017-Mar-23 05:34N 48°02' W 005°10'2322.4
2017-Mar-23 04:33N 47°40' W 005°01'6 0.2
2017-Mar-22 00:23N 47°44' W 005°08'1822.1
2017-Mar-21 23:33N 48°02' W 005°13'2121.4
2017-Mar-21 22:33N 48°22' W 005°06'1818.1
2017-Mar-21 21:34N 48°36' W 004°48'2120.6
2017-Mar-21 20:33N 48°52' W 004°28'6521.5
2017-Mar-21 17:33N 49°40' W 003°23'2222.1
2017-Mar-21 16:33N 49°55' W 002°58'7021.3
2017-Mar-21 13:15N 50°28' W 001°21'1419.7
2017-Mar-21 12:33N 50°37' W 001°04'1212.0
2017-Mar-21 11:34N 50°48' W 001°07'1 0.7
2017-Mar-21 10:33N 50°49' W 001°06'0 0.0
2017-Mar-21 09:33N 50°49' W 001°06'0 0.0
2017-Mar-21 08:33N 50°49' W 001°06'0 0.1
2017-Mar-21 07:34N 50°49' W 001°06'9 9.3
2017-Mar-21 06:34N 50°39' W 001°05'2 2.3
2017-Mar-21 05:34N 50°37' W 001°06'3812.7
2017-Mar-21 02:34N 50°07' W 001°42'1414.1
2017-Mar-21 01:34N 49°53' W 001°48'73 3.8
2017-Mar-20 06:33N 48°41' W 002°06'1616.1
2017-Mar-20 05:33N 48°54' W 002°20'6015.0
2017-Mar-20 01:34N 49°51' W 001°51'1514.7
2017-Mar-20 00:33N 50°03' W 001°37'1414.2
2017-Mar-19 23:33N 50°14' W 001°25'2114.1
2017-Mar-19 22:05N 50°31' W 001°05'814.4
2017-Mar-19 21:33N 50°38' W 001°00'1111.2
2017-Mar-19 20:33N 50°48' W 001°07'1 0.8
2017-Mar-19 19:33N 50°49' W 001°06'0 0.0
2017-Mar-19 18:33N 50°49' W 001°06'0 0.0
2017-Mar-19 17:33N 50°49' W 001°06'1 0.6
2017-Mar-19 16:34N 50°48' W 001°07'1211.7
2017-Mar-19 15:34N 50°37' W 001°06'2720.5
2017-Mar-19 14:16N 50°19' W 001°37'1521.4
2017-Mar-19 13:33N 50°10' W 001°56'2322.4
2017-Mar-19 12:32N 49°56' W 002°25'4522.9
2017-Mar-19 10:33N 49°29' W 003°21'3022.5
2017-Mar-19 09:15N 49°10' W 003°55'3822.7
2017-Mar-19 07:34N 48°43' W 004°37'2222.2
2017-Mar-19 06:33N 48°27' W 005°01'2020.4
2017-Mar-19 05:34N 48°08' W 005°10'2323.0
2017-Mar-19 04:34N 47°45' W 005°03'2322.5
2017-Mar-19 03:33N 47°23' W 004°56'2222.2
2017-Mar-19 02:33N 47°01' W 004°49'2222.1
2017-Mar-19 01:33N 46°40' W 004°42'70 2.7
2017-Mar-17 23:17N 47°48' W 005°05'2023.6
2017-Mar-17 22:27N 48°07' W 005°09'2022.3
2017-Mar-17 21:34N 48°27' W 005°02'2120.5
2017-Mar-17 20:33N 48°42' W 004°41'9621.7
2017-Mar-17 16:08N 49°53' W 003°02'1623.7
2017-Mar-17 15:27N 50°02' W 002°41'6622.4
2017-Mar-17 12:31N 50°34' W 001°11'1313.3
2017-Mar-17 11:33N 50°46' W 001°05'3 2.9
2017-Mar-17 10:33N 50°49' W 001°06'0 0.0
2017-Mar-17 09:34N 50°49' W 001°06'0 0.0
2017-Mar-17 08:33N 50°49' W 001°06'0 0.0
2017-Mar-17 07:33N 50°49' W 001°06'0 0.0
2017-Mar-17 06:33N 50°49' W 001°06'0 0.0
2017-Mar-17 05:33N 50°49' W 001°06'0 0.0
2017-Mar-17 04:33N 50°49' W 001°06'0 0.0
2017-Mar-17 03:33N 50°49' W 001°06'0 0.0
2017-Mar-17 02:33N 50°49' W 001°06'0 0.0
2017-Mar-17 01:33N 50°49' W 001°06'0 0.0
2017-Mar-17 00:33N 50°49' W 001°06'0 0.0
2017-Mar-16 23:33N 50°49' W 001°06'0 0.0
2017-Mar-16 22:34N 50°49' W 001°06'0 0.0
2017-Mar-16 21:33N 50°49' W 001°06'0 0.0
2017-Mar-16 20:33N 50°49' W 001°06'0 0.0
2017-Mar-16 19:33N 50°49' W 001°06'0 0.0
2017-Mar-16 18:33N 50°49' W 001°06'0 0.0
2017-Mar-16 17:34N 50°49' W 001°06'1 0.9
2017-Mar-16 16:33N 50°48' W 001°07'1111.2
2017-Mar-16 15:34N 50°37' W 001°02'1817.9
2017-Mar-16 14:34N 50°26' W 001°24'1919.1
2017-Mar-16 13:33N 50°14' W 001°48'2020.0
2017-Mar-16 12:33N 50°02' W 002°12'5522.8
2017-Mar-16 10:10N 49°30' W 003°21'1423.6
2017-Mar-16 09:33N 49°21' W 003°37'2322.5
2017-Mar-16 08:33N 49°05' W 004°02'2323.1
2017-Mar-16 07:32N 48°49' W 004°28'2424.1
2017-Mar-16 06:34N 48°33' W 004°54'1919.2
2017-Mar-16 05:34N 48°16' W 005°08'2523.5
2017-Mar-16 04:29N 47°51' W 005°06'3323.3
2017-Mar-16 03:05N 47°19' W 004°57'1923.4
2017-Mar-16 02:17N 47°00' W 004°52'1723.4
2017-Mar-16 01:34N 46°44' W 004°47'24 1.0
2017-Mar-15 00:31N 47°07' W 004°51'2222.6
2017-Mar-14 23:32N 47°28' W 005°01'2723.0
2017-Mar-14 22:23N 47°55' W 005°08'2024.2
2017-Mar-14 21:34N 48°14' W 005°07'2120.6
2017-Mar-14 20:33N 48°33' W 004°53'2322.9
2017-Mar-14 19:34N 48°50' W 004°30'2121.2
2017-Mar-14 18:33N 49°05' W 004°07'  

Dump ship's entire track history